createdAt,value
2023-02-11T00:02:08.832Z,2.90
2023-02-11T00:04:38.427Z,2.90
2023-02-11T00:07:08.073Z,2.90
2023-02-11T00:09:39.222Z,2.80
2023-02-11T00:12:08.777Z,2.80
2023-02-11T00:14:38.222Z,2.70
2023-02-11T00:17:07.764Z,2.70
2023-02-11T00:19:38.686Z,2.70
2023-02-11T00:22:08.204Z,2.40
2023-02-11T00:24:38.310Z,1.90
2023-02-11T00:27:07.734Z,1.80
2023-02-11T00:29:39.941Z,1.70
2023-02-11T00:32:09.431Z,1.50
2023-02-11T00:34:40.832Z,1.60
2023-02-11T00:37:11.966Z,1.50
2023-02-11T00:39:43.210Z,1.30
2023-02-11T00:42:15.732Z,1.30
2023-02-11T00:44:47.231Z,1.50
2023-02-11T00:47:18.432Z,1.80
2023-02-11T00:49:48.513Z,1.90
2023-02-11T00:52:17.943Z,1.90
2023-02-11T00:54:47.447Z,1.50
2023-02-11T00:57:17.121Z,1.10
2023-02-11T00:59:46.561Z,1.10
2023-02-11T01:02:15.981Z,1.40
2023-02-11T01:04:45.548Z,1.20
2023-02-11T01:07:15.044Z,1.40
2023-02-11T01:09:44.744Z,1.50
2023-02-11T01:12:14.389Z,1.60
2023-02-11T01:14:44.382Z,1.70
2023-02-11T01:17:14.073Z,1.20
2023-02-11T01:19:43.977Z,1.00
2023-02-11T01:22:13.839Z,1.00
2023-02-11T01:24:43.253Z,0.90
2023-02-11T01:27:11.923Z,1.10
2023-02-11T01:29:40.549Z,1.40
2023-02-11T01:32:09.213Z,1.20
2023-02-11T01:34:38.277Z,1.50
2023-02-11T01:37:06.886Z,1.30
2023-02-11T01:39:37.721Z,1.60
2023-02-11T01:42:08.104Z,1.30
2023-02-11T01:44:40.856Z,1.20
2023-02-11T01:47:12.785Z,1.30
2023-02-11T01:49:45.268Z,1.50
2023-02-11T01:52:19.633Z,1.70
2023-02-11T01:55:19.303Z,1.70
2023-02-11T01:57:52.571Z,1.80
2023-02-11T02:00:25.071Z,1.70
2023-02-11T02:03:12.980Z,1.80
2023-02-11T02:06:00.578Z,1.60
2023-02-11T02:08:45.408Z,1.30
2023-02-11T02:11:14.960Z,1.20
2023-02-11T02:13:46.390Z,1.50
2023-02-11T02:16:19.141Z,1.60
2023-02-11T02:18:54.804Z,1.70
2023-02-11T02:21:33.066Z,1.60
2023-02-11T02:24:28.050Z,0.90
2023-02-11T02:27:19.984Z,1.10
2023-02-11T02:29:55.537Z,1.20
2023-02-11T02:32:52.204Z,1.30
2023-02-11T02:35:45.765Z,1.40
2023-02-11T02:38:30.248Z,1.50
2023-02-11T02:41:14.322Z,1.40
2023-02-11T02:43:46.945Z,1.50
2023-02-11T02:46:19.542Z,1.50
2023-02-11T02:48:52.775Z,1.50
2023-02-11T02:51:41.916Z,1.40
2023-02-11T02:54:26.430Z,1.30
2023-02-11T02:57:18.695Z,0.80
2023-02-11T03:00:18.841Z,0.40
2023-02-11T03:03:13.218Z,0.40
2023-02-11T03:05:51.765Z,0.40
2023-02-11T03:08:47.854Z,0.30
2023-02-11T03:11:21.888Z,0.60
2023-02-11T03:13:53.992Z,0.90
2023-02-11T03:16:26.572Z,0.90
2023-02-11T03:19:05.617Z,1.20
2023-02-11T03:21:38.011Z,1.10
2023-02-11T03:25:57.665Z,1.20
2023-02-11T03:28:45.035Z,1.20
2023-02-11T03:31:29.931Z,1.20
2023-02-11T03:34:05.137Z,1.10
2023-02-11T03:36:55.278Z,1.20
2023-02-11T03:39:30.678Z,1.20
2023-02-11T03:42:03.064Z,1.10
2023-02-11T03:44:33.299Z,0.80
2023-02-11T03:47:05.901Z,0.80
2023-02-11T03:49:38.404Z,0.90
2023-02-11T03:52:11.612Z,0.90
2023-02-11T03:54:44.136Z,0.80
2023-02-11T03:57:13.757Z,0.80
2023-02-11T03:59:57.970Z,0.90
2023-02-11T04:02:32.422Z,1.00
2023-02-11T04:05:01.835Z,0.90
2023-02-11T04:07:31.313Z,0.60
2023-02-11T04:10:02.268Z,0.70
2023-02-11T04:12:31.822Z,0.70
2023-02-11T04:15:01.348Z,0.20
2023-02-11T04:17:30.953Z,0.20
2023-02-11T04:20:00.454Z,0.40
2023-02-11T04:22:31.458Z,0.20
2023-02-11T04:25:00.950Z,0.30
2023-02-11T04:27:30.553Z,0.40
2023-02-11T04:30:00.442Z,0.30
2023-02-11T04:32:29.868Z,0.40
2023-02-11T04:35:03.983Z,0.50
2023-02-11T04:37:33.534Z,0.50
2023-02-11T04:40:04.588Z,0.50
2023-02-11T04:42:33.973Z,0.50
2023-02-11T04:45:03.562Z,0.40
2023-02-11T04:47:33.036Z,0.50
2023-02-11T04:50:02.541Z,0.50
2023-02-11T04:52:31.965Z,0.40
2023-02-11T04:55:01.578Z,0.20
2023-02-11T04:57:31.007Z,0.00
2023-02-11T05:00:00.438Z,0.30
2023-02-11T05:02:29.958Z,0.40
2023-02-11T05:04:59.450Z,0.50
2023-02-11T05:07:29.578Z,0.50
2023-02-11T05:09:59.210Z,0.40
2023-02-11T05:12:28.644Z,0.40
2023-02-11T05:14:58.069Z,0.50
2023-02-11T05:17:27.745Z,0.30
2023-02-11T05:19:57.235Z,0.40
2023-02-11T05:22:26.652Z,0.40
2023-02-11T05:24:56.174Z,0.40
2023-02-11T05:27:25.590Z,0.40
2023-02-11T05:29:55.029Z,0.40
2023-02-11T05:32:24.614Z,0.30
2023-02-11T05:34:54.032Z,0.20
2023-02-11T05:37:23.504Z,0.20
2023-02-11T05:39:53.112Z,0.00
2023-02-11T05:42:22.602Z,-0.60
2023-02-11T05:44:52.042Z,-0.30
2023-02-11T05:47:22.232Z,-0.30
2023-02-11T05:49:53.566Z,-0.10
2023-02-11T05:52:25.689Z,-0.10
2023-02-11T05:54:56.823Z,-0.40
2023-02-11T05:57:26.743Z,-0.30
2023-02-11T05:59:56.172Z,-0.10
2023-02-11T06:02:25.651Z,0.00
2023-02-11T06:04:55.573Z,0.00
2023-02-11T06:07:25.099Z,0.00
2023-02-11T06:09:54.585Z,0.10
2023-02-11T06:12:24.234Z,0.00
2023-02-11T06:14:53.722Z,0.10
2023-02-11T06:17:23.527Z,0.00
2023-02-11T06:19:53.159Z,-0.10
2023-02-11T06:22:22.588Z,-0.20
2023-02-11T06:25:01.404Z,-0.10
2023-02-11T06:27:23.973Z,-0.10
2023-02-11T06:29:54.712Z,-0.10
2023-02-11T06:32:42.682Z,-0.20
2023-02-11T06:34:55.470Z,-0.50
2023-02-11T06:37:25.788Z,-0.40
2023-02-11T06:39:55.877Z,-0.80
2023-02-11T06:42:25.452Z,-0.60
2023-02-11T06:44:54.940Z,-0.70
2023-02-11T06:47:24.380Z,-1.30
2023-02-11T06:49:54.724Z,-0.90
2023-02-11T06:52:24.228Z,-0.70
2023-02-11T06:54:53.739Z,-0.60
2023-02-11T06:57:24.143Z,-0.50
2023-02-11T06:59:53.588Z,-0.60
2023-02-11T07:02:24.115Z,-0.50
2023-02-11T07:04:53.549Z,-0.40
2023-02-11T07:07:23.154Z,-0.40
2023-02-11T07:09:52.786Z,-0.50
2023-02-11T07:12:22.356Z,-0.50
2023-02-11T07:14:53.249Z,-0.60
2023-02-11T07:17:22.682Z,-0.60
2023-02-11T07:19:52.186Z,-0.90
2023-02-11T07:22:21.822Z,-1.30
2023-02-11T07:24:52.996Z,-1.10
2023-02-11T07:27:22.459Z,-0.90
2023-02-11T07:29:52.748Z,-0.60
2023-02-11T07:32:22.225Z,-0.50
2023-02-11T07:34:51.727Z,-0.40
2023-02-11T07:37:21.364Z,-0.40
2023-02-11T07:39:51.012Z,-0.40
2023-02-11T07:42:20.513Z,-0.80
2023-02-11T07:44:50.649Z,-1.20
2023-02-11T07:47:21.466Z,-1.40
2023-02-11T07:49:50.898Z,-1.30
2023-02-11T07:52:21.463Z,-0.80
2023-02-11T07:54:50.965Z,-0.20
2023-02-11T07:57:20.380Z,0.40
2023-02-11T07:59:51.503Z,1.30
2023-02-11T08:02:21.960Z,1.90
2023-02-11T08:04:51.361Z,2.60
2023-02-11T08:07:22.497Z,3.10
2023-02-11T08:09:51.936Z,3.10
2023-02-11T08:12:21.361Z,3.50
2023-02-11T08:14:51.472Z,3.50
2023-02-11T08:17:20.884Z,3.60
2023-02-11T08:19:52.883Z,4.00
2023-02-11T08:22:22.374Z,4.40
2023-02-11T08:24:52.532Z,5.00
2023-02-11T08:27:23.739Z,5.10
2023-02-11T08:29:53.982Z,5.70
2023-02-11T08:32:25.724Z,6.00
2023-02-11T08:34:55.719Z,5.70
2023-02-11T08:37:25.152Z,5.50
2023-02-11T08:39:54.624Z,6.70
2023-02-11T08:42:24.049Z,6.30
2023-02-11T08:44:53.601Z,6.90
2023-02-11T08:47:23.020Z,7.80
2023-02-11T08:49:53.938Z,8.20
2023-02-11T08:52:24.034Z,6.30
2023-02-11T08:54:53.546Z,6.90
2023-02-11T08:57:23.248Z,7.40
2023-02-11T08:59:52.679Z,8.30
2023-02-11T09:02:22.188Z,7.80
2023-02-11T09:04:51.941Z,7.40
2023-02-11T09:07:21.370Z,8.10
2023-02-11T09:09:50.797Z,8.80
2023-02-11T09:12:20.382Z,9.60
2023-02-11T09:14:49.810Z,9.90
2023-02-11T09:17:19.238Z,10.30
2023-02-11T09:19:48.798Z,10.10
2023-02-11T09:22:18.244Z,10.10
2023-02-11T09:24:47.686Z,10.60
2023-02-11T09:27:17.693Z,10.40
2023-02-11T09:29:47.207Z,10.80
2023-02-11T09:32:17.141Z,11.00
2023-02-11T09:34:49.092Z,9.60
2023-02-11T09:37:18.505Z,8.90
2023-02-11T09:39:48.047Z,9.80
2023-02-11T09:42:37.119Z,10.30
2023-02-11T09:45:09.840Z,11.00
2023-02-11T09:47:42.402Z,9.70
2023-02-11T09:50:18.515Z,10.70
2023-02-11T09:53:03.073Z,11.50
2023-02-11T09:55:40.297Z,11.60
2023-02-11T09:58:19.117Z,11.20
2023-02-11T10:00:54.793Z,9.90
2023-02-11T10:04:02.751Z,11.30
2023-02-11T10:06:54.256Z,9.10
2023-02-11T10:09:35.515Z,9.30
2023-02-11T10:12:26.200Z,10.20
2023-02-11T10:15:21.202Z,10.80
2023-02-11T10:17:59.628Z,12.00
2023-02-11T10:20:40.921Z,11.00
2023-02-11T10:23:20.940Z,12.20
2023-02-11T10:25:56.258Z,11.60
2023-02-11T10:28:31.328Z,10.50
2023-02-11T10:31:09.547Z,10.10
2023-02-11T10:33:55.017Z,11.40
2023-02-11T10:36:27.519Z,11.60
2023-02-11T10:38:58.173Z,10.90
2023-02-11T10:41:30.753Z,10.60
2023-02-11T10:44:03.229Z,10.90
2023-02-11T10:46:34.474Z,10.40
2023-02-11T10:49:04.079Z,10.50
2023-02-11T10:51:34.916Z,9.00
2023-02-11T10:54:18.174Z,9.30
2023-02-11T10:56:51.975Z,9.20
2023-02-11T10:59:40.735Z,9.20
2023-02-11T11:02:26.014Z,9.00
2023-02-11T11:04:57.436Z,8.80
2023-02-11T11:07:27.844Z,9.50
2023-02-11T11:10:10.133Z,9.70
2023-02-11T11:12:48.322Z,9.10
2023-02-11T11:15:27.032Z,9.20
2023-02-11T11:18:21.359Z,8.90
2023-02-11T11:20:45.480Z,8.70
2023-02-11T11:23:25.186Z,8.90
2023-02-11T11:26:09.519Z,9.00
2023-02-11T11:28:42.013Z,9.20
2023-02-11T11:31:20.572Z,9.10
2023-02-11T11:33:54.349Z,9.40
2023-02-11T11:36:27.001Z,9.30
2023-02-11T11:38:59.514Z,9.90
2023-02-11T11:41:32.801Z,10.00
2023-02-11T11:44:17.112Z,9.90
2023-02-11T11:46:50.593Z,9.60
2023-02-11T11:49:32.250Z,9.90
2023-02-11T11:52:16.534Z,9.80
2023-02-11T11:54:49.041Z,10.10
2023-02-11T11:57:22.425Z,10.20
2023-02-11T11:59:52.223Z,9.80
2023-02-11T12:02:56.601Z,10.50
2023-02-11T12:05:29.052Z,10.80
2023-02-11T12:08:07.129Z,11.10
2023-02-11T12:10:57.804Z,10.90
2023-02-11T12:13:30.728Z,11.10
2023-02-11T12:16:28.804Z,11.20
2023-02-11T12:19:16.473Z,11.90
2023-02-11T12:22:07.041Z,11.30
2023-02-11T12:24:45.624Z,10.90
2023-02-11T12:27:20.707Z,10.90
2023-02-11T12:30:03.127Z,10.90
2023-02-11T12:32:54.041Z,10.90
2023-02-11T12:35:41.971Z,11.20
2023-02-11T12:38:18.791Z,11.00
2023-02-11T12:41:01.345Z,11.50
2023-02-11T12:43:50.570Z,11.50
2023-02-11T12:46:23.271Z,11.60
2023-02-11T12:49:27.514Z,11.50
2023-02-11T12:52:17.967Z,11.30
2023-02-11T12:54:56.438Z,11.40
2023-02-11T12:57:30.265Z,11.60
2023-02-11T13:00:24.833Z,11.40
2023-02-11T13:03:14.297Z,11.40
2023-02-11T13:05:56.015Z,11.60
2023-02-11T13:08:28.737Z,11.50
2023-02-11T13:11:03.939Z,11.80
2023-02-11T13:13:36.541Z,11.90
2023-02-11T13:16:07.696Z,11.60
2023-02-11T13:18:41.785Z,11.30
2023-02-11T13:21:28.813Z,11.60
2023-02-11T13:24:10.251Z,11.30
2023-02-11T13:26:45.684Z,11.50
2023-02-11T13:29:37.896Z,11.60
2023-02-11T13:32:10.557Z,11.60
2023-02-11T13:34:46.953Z,11.60
2023-02-11T13:37:32.271Z,11.90
2023-02-11T13:40:08.837Z,11.60
2023-02-11T13:42:47.094Z,11.60
2023-02-11T13:45:46.869Z,11.40
2023-02-11T13:48:25.627Z,11.40
2023-02-11T13:50:58.596Z,11.50
2023-02-11T13:53:30.164Z,11.30
2023-02-11T13:56:08.946Z,11.20
2023-02-11T13:58:47.034Z,11.10
2023-02-11T14:01:42.108Z,11.40
2023-02-11T14:04:39.348Z,11.40
2023-02-11T14:07:50.990Z,11.50
2023-02-11T14:10:46.180Z,11.30
2023-02-11T14:13:36.454Z,11.10
2023-02-11T14:16:13.476Z,11.10
2023-02-11T14:18:53.251Z,11.30
2023-02-11T14:21:30.306Z,11.30
2023-02-11T14:24:07.684Z,11.30
2023-02-11T14:27:01.570Z,11.20
2023-02-11T14:29:54.759Z,11.40
2023-02-11T14:32:48.372Z,11.20
2023-02-11T14:35:27.364Z,11.20
2023-02-11T14:38:05.661Z,11.20
2023-02-11T14:40:38.616Z,11.10
2023-02-11T14:43:29.343Z,11.20
2023-02-11T14:46:00.609Z,11.20
2023-02-11T14:48:30.781Z,11.20
2023-02-11T14:51:12.374Z,11.30
2023-02-11T14:53:47.875Z,11.00
2023-02-11T14:56:28.205Z,11.20
2023-02-11T14:58:58.408Z,11.00
2023-02-11T15:01:36.779Z,11.10
2023-02-11T15:04:09.358Z,11.00
2023-02-11T15:06:42.523Z,11.00
2023-02-11T15:09:25.438Z,11.00
2023-02-11T15:11:57.550Z,11.00
2023-02-11T15:14:32.791Z,11.00
2023-02-11T15:17:06.493Z,11.00
2023-02-11T15:19:38.993Z,11.00
2023-02-11T15:22:29.771Z,11.00
2023-02-11T15:25:05.433Z,11.00
2023-02-11T15:27:50.395Z,11.00
2023-02-11T15:30:28.712Z,10.90
2023-02-11T15:33:03.576Z,10.90
2023-02-11T15:35:41.558Z,10.90
2023-02-11T15:38:14.584Z,10.90
2023-02-11T15:41:00.755Z,10.90
2023-02-11T15:43:44.400Z,10.90
2023-02-11T15:46:17.661Z,10.90
2023-02-11T15:48:55.718Z,10.90
2023-02-11T15:51:35.762Z,10.90
2023-02-11T15:54:08.527Z,10.80
2023-02-11T15:56:45.054Z,10.90
2023-02-11T15:59:24.972Z,10.90
2023-02-11T16:01:57.444Z,10.80
2023-02-11T16:04:29.365Z,10.80
2023-02-11T16:06:59.293Z,10.70
2023-02-11T16:09:37.815Z,10.70
2023-02-11T16:12:30.277Z,10.70
2023-02-11T16:15:01.414Z,10.70
2023-02-11T16:17:30.993Z,10.60
2023-02-11T16:20:00.630Z,10.60
2023-02-11T16:22:33.614Z,10.50
2023-02-11T16:25:04.188Z,10.60
2023-02-11T16:27:44.149Z,10.50
2023-02-11T16:30:31.974Z,10.40
2023-02-11T16:33:04.255Z,10.40
2023-02-11T16:35:33.939Z,10.40
2023-02-11T16:38:03.355Z,10.40
2023-02-11T16:40:33.670Z,10.30
2023-02-11T16:43:03.074Z,10.20
2023-02-11T16:45:32.641Z,10.10
2023-02-11T16:48:03.063Z,10.10
2023-02-11T16:50:32.966Z,10.10
2023-02-11T16:53:05.530Z,10.00
2023-02-11T16:55:36.498Z,9.90
2023-02-11T16:58:07.602Z,9.90
2023-02-11T17:00:38.059Z,9.80
2023-02-11T17:03:09.756Z,9.80
2023-02-11T17:05:58.106Z,9.80
2023-02-11T17:08:12.822Z,9.70
2023-02-11T17:10:42.683Z,9.60
2023-02-11T17:13:12.129Z,9.50
2023-02-11T17:15:41.667Z,9.40
2023-02-11T17:18:15.385Z,9.30
2023-02-11T17:20:45.258Z,9.40
2023-02-11T17:23:14.763Z,9.30
2023-02-11T17:25:44.177Z,9.30
2023-02-11T17:28:13.719Z,9.30
2023-02-11T17:30:44.880Z,9.10
2023-02-11T17:33:14.277Z,9.10
2023-02-11T17:35:44.366Z,9.00
2023-02-11T17:38:15.110Z,9.00
2023-02-11T17:40:46.423Z,8.90
2023-02-11T17:43:17.955Z,8.90
2023-02-11T17:45:47.441Z,8.80
2023-02-11T17:48:16.902Z,8.80
2023-02-11T17:50:46.395Z,8.70
2023-02-11T17:53:15.890Z,8.60
2023-02-11T17:55:45.392Z,8.50
2023-02-11T17:58:14.911Z,8.60
2023-02-11T18:00:44.466Z,8.50
2023-02-11T18:03:13.951Z,8.50
2023-02-11T18:05:44.299Z,8.40
2023-02-11T18:08:13.732Z,8.40
2023-02-11T18:10:43.371Z,8.30
2023-02-11T18:13:13.791Z,8.30
2023-02-11T18:15:45.189Z,8.20
2023-02-11T18:18:15.263Z,8.20
2023-02-11T18:20:46.333Z,8.10
2023-02-11T18:23:16.075Z,8.10
2023-02-11T18:25:45.511Z,8.10
2023-02-11T18:28:15.039Z,8.00
2023-02-11T18:30:44.923Z,8.10
2023-02-11T18:33:14.958Z,8.00
2023-02-11T18:35:46.000Z,8.00
2023-02-11T18:38:15.676Z,8.00
2023-02-11T18:40:47.315Z,7.90
2023-02-11T18:43:20.915Z,7.90
2023-02-11T18:45:51.958Z,7.90
2023-02-11T18:48:21.547Z,7.80
2023-02-11T18:50:51.163Z,7.70
2023-02-11T18:53:21.082Z,7.70
2023-02-11T18:55:50.952Z,7.70
2023-02-11T18:58:21.420Z,7.70
2023-02-11T19:00:51.520Z,7.60
2023-02-11T19:03:21.641Z,7.50
2023-02-11T19:05:51.631Z,7.60
2023-02-11T19:08:21.378Z,7.50
2023-02-11T19:10:52.423Z,7.40
2023-02-11T19:13:21.844Z,7.50
2023-02-11T19:15:51.544Z,7.40
2023-02-11T19:18:23.642Z,7.30
2023-02-11T19:20:53.060Z,7.30
2023-02-11T19:23:22.494Z,7.30
2023-02-11T19:25:53.030Z,7.20
2023-02-11T19:28:22.608Z,7.20
2023-02-11T19:30:52.265Z,7.20
2023-02-11T19:33:21.989Z,7.10
2023-02-11T19:35:51.672Z,7.10
2023-02-11T19:38:22.055Z,7.00
2023-02-11T19:40:58.849Z,6.90
2023-02-11T19:43:29.323Z,6.90
2023-02-11T19:45:58.823Z,6.90
2023-02-11T19:48:29.417Z,6.80
2023-02-11T19:50:59.105Z,6.80
2023-02-11T19:53:28.615Z,6.70
2023-02-11T19:56:01.572Z,6.70
2023-02-11T19:58:30.357Z,6.70
2023-02-11T20:01:08.630Z,6.70
2023-02-11T20:03:40.788Z,6.70
2023-02-11T20:06:15.145Z,6.60
2023-02-11T20:08:45.419Z,6.60
2023-02-11T20:11:17.762Z,6.50
2023-02-11T20:13:46.394Z,6.50
2023-02-11T20:16:18.058Z,6.40
2023-02-11T20:18:49.654Z,6.40
2023-02-11T20:21:25.275Z,6.30
2023-02-11T20:23:56.010Z,6.20
2023-02-11T20:26:27.632Z,6.20
2023-02-11T20:28:59.125Z,6.10
2023-02-11T20:31:29.361Z,6.10
2023-02-11T20:34:00.390Z,6.10
2023-02-11T20:36:32.365Z,6.00
2023-02-11T20:39:03.687Z,6.00
2023-02-11T20:41:35.652Z,6.00
2023-02-11T20:44:08.141Z,5.90
2023-02-11T20:46:40.564Z,5.90
2023-02-11T20:49:12.576Z,5.80
2023-02-11T20:51:42.641Z,5.80
2023-02-11T20:54:17.878Z,5.80
2023-02-11T20:56:48.720Z,5.70
2023-02-11T20:59:19.344Z,5.70
2023-02-11T21:01:53.382Z,5.70
2023-02-11T21:04:28.926Z,5.60
2023-02-11T21:07:01.980Z,5.60
2023-02-11T21:09:33.503Z,5.50
2023-02-11T21:12:03.563Z,5.50
2023-02-11T21:14:34.165Z,5.50
2023-02-11T21:17:04.145Z,5.40
2023-02-11T21:19:33.684Z,5.40
2023-02-11T21:22:03.168Z,5.40
2023-02-11T21:24:32.593Z,5.40
2023-02-11T21:27:03.540Z,5.20
2023-02-11T21:29:36.665Z,5.30
2023-02-11T21:32:04.510Z,5.30
2023-02-11T21:34:34.154Z,5.20
2023-02-11T21:37:04.503Z,5.20
2023-02-11T21:39:33.990Z,5.30
2023-02-11T21:42:03.439Z,5.20
2023-02-11T21:44:33.200Z,5.20
2023-02-11T21:47:02.764Z,5.20
2023-02-11T21:49:32.594Z,5.20
2023-02-11T21:52:02.478Z,5.20
2023-02-11T21:54:32.397Z,5.30
2023-02-11T21:57:03.411Z,5.20
2023-02-11T21:59:32.920Z,5.30
2023-02-11T22:02:02.342Z,5.20
2023-02-11T22:04:31.915Z,5.20
2023-02-11T22:07:02.986Z,5.20
2023-02-11T22:09:32.619Z,5.30
2023-02-11T22:12:02.054Z,5.30
2023-02-11T22:14:32.474Z,5.30
2023-02-11T22:17:02.652Z,5.30
2023-02-11T22:19:35.384Z,5.30
2023-02-11T22:22:05.237Z,5.30
2023-02-11T22:24:35.903Z,5.30
2023-02-11T22:27:05.485Z,5.30
2023-02-11T22:29:34.977Z,5.30
2023-02-11T22:32:04.517Z,5.40
2023-02-11T22:34:34.565Z,5.40
2023-02-11T22:37:05.213Z,5.50
2023-02-11T22:39:34.675Z,5.50
2023-02-11T22:42:04.191Z,5.50
2023-02-11T22:44:33.613Z,5.50
2023-02-11T22:47:03.102Z,5.50
2023-02-11T22:49:33.244Z,5.50
2023-02-11T22:52:03.030Z,5.50
2023-02-11T22:54:32.740Z,5.50
2023-02-11T22:57:02.171Z,5.50
2023-02-11T22:59:31.670Z,5.40
2023-02-11T23:02:01.458Z,5.30
2023-02-11T23:04:30.904Z,5.30
2023-02-11T23:07:00.335Z,5.30
2023-02-11T23:09:30.046Z,5.30
2023-02-11T23:12:00.100Z,5.30
2023-02-11T23:14:29.514Z,5.20
2023-02-11T23:16:59.159Z,5.20
2023-02-11T23:19:28.832Z,5.10
2023-02-11T23:21:58.245Z,5.20
2023-02-11T23:24:27.851Z,5.20
2023-02-11T23:26:57.406Z,5.10
2023-02-11T23:29:26.824Z,5.10
2023-02-11T23:31:58.720Z,5.00
2023-02-11T23:34:27.483Z,4.90
2023-02-11T23:36:58.625Z,5.00
2023-02-11T23:39:28.207Z,5.10
2023-02-11T23:41:59.789Z,5.10
2023-02-11T23:44:29.471Z,5.10
2023-02-11T23:46:59.174Z,5.20
2023-02-11T23:49:28.652Z,5.30
2023-02-11T23:51:58.137Z,5.30
2023-02-11T23:54:27.947Z,5.30
2023-02-11T23:56:58.394Z,5.40
2023-02-11T23:59:27.873Z,5.40
